Time;durP1;ratioP1;P1;durP2;ratioP2;P2;SDS_P1;SDS_P2;PMS_P1;PMS_P2;Temp;Humidity;BMP_temperature;BMP_pressure;BME280_temperature;BME280_humidity;BME280_pressure;Samples;Min_cycle;Max_cycle;Signal;HPM_P1;HPM_P2
2024/03/04 00:02:10;;;;;;;25.07;6.13;;;10.30;99.90;;;;;;5002353;28;20178;-82
2024/03/04 00:04:39;;;;;;;21.45;6.68;;;10.30;99.90;;;;;;5001477;28;20194;-82
2024/03/04 00:07:05;;;;;;;21.52;5.78;;;10.30;99.90;;;;;;5002035;28;20168;-82
2024/03/04 00:09:31;;;;;;;24.85;7.57;;;10.30;99.90;;;;;;5002475;28;20163;-82
2024/03/04 00:11:56;;;;;;;24.67;7.40;;;10.30;99.90;;;;;;4983974;28;20665;-82
2024/03/04 00:14:23;;;;;;;21.20;6.53;;;10.30;99.90;;;;;;5001413;28;20849;-82
2024/03/04 00:16:49;;;;;;;23.40;6.60;;;10.30;99.90;;;;;;5001666;28;20171;-82
2024/03/04 00:19:18;;;;;;;27.70;8.13;;;10.20;99.90;;;;;;5001053;28;20182;-82
2024/03/04 00:21:48;;;;;;;22.10;8.38;;;10.30;99.90;;;;;;5000707;28;20426;-82
2024/03/04 00:24:14;;;;;;;26.60;7.82;;;10.30;99.90;;;;;;5000816;28;20199;-82
2024/03/04 00:26:43;;;;;;;23.00;7.68;;;10.20;99.90;;;;;;5000730;28;20215;-82
2024/03/04 00:29:09;;;;;;;24.88;7.15;;;10.00;99.90;;;;;;5001776;28;20167;-81
2024/03/04 00:31:34;;;;;;;24.70;6.93;;;10.00;99.90;;;;;;5000224;28;20195;-82
2024/03/04 00:34:00;;;;;;;22.67;6.13;;;10.00;99.90;;;;;;5000597;28;20171;-82
2024/03/04 00:36:26;;;;;;;22.27;7.73;;;10.00;99.90;;;;;;5000716;28;20167;-82
2024/03/04 00:38:55;;;;;;;21.88;6.55;;;10.00;99.90;;;;;;5001565;28;20182;-81
2024/03/04 00:41:27;;;;;;;25.23;6.55;;;10.00;99.90;;;;;;5000207;28;20245;-80
2024/03/04 00:44:01;;;;;;;23.67;8.63;;;10.00;99.90;;;;;;4983033;28;20202;-82
2024/03/04 00:46:30;;;;;;;21.63;7.45;;;10.00;99.90;;;;;;4983853;28;20158;-82
2024/03/04 00:48:58;;;;;;;20.27;6.55;;;10.00;99.90;;;;;;5001034;28;20163;-82
2024/03/04 00:51:23;;;;;;;23.13;6.65;;;10.00;99.90;;;;;;5002224;28;20716;-82
2024/03/04 00:53:49;;;;;;;21.70;5.73;;;10.00;99.90;;;;;;5001359;28;20171;-82
2024/03/04 00:56:17;;;;;;;23.33;6.60;;;9.90;99.90;;;;;;5002971;28;20171;-82
2024/03/04 00:58:42;;;;;;;19.05;5.05;;;9.80;99.90;;;;;;4984639;28;20221;-82
2024/03/04 01:01:09;;;;;;;23.50;6.67;;;9.90;99.90;;;;;;5001679;28;20186;-82
2024/03/04 01:03:35;;;;;;;20.38;5.95;;;9.90;99.90;;;;;;5000191;28;20454;-82
2024/03/04 01:06:01;;;;;;;21.50;6.50;;;9.90;99.90;;;;;;5000743;28;20174;-82
2024/03/04 01:08:27;;;;;;;22.80;6.20;;;9.90;99.90;;;;;;5001953;28;20187;-82
2024/03/04 01:10:56;;;;;;;22.37;6.10;;;9.90;99.90;;;;;;4999930;28;20182;-82
2024/03/04 01:13:22;;;;;;;27.77;7.05;;;9.80;99.90;;;;;;5002057;28;20912;-82
2024/03/04 01:15:48;;;;;;;23.57;7.13;;;9.70;99.90;;;;;;5002396;28;20182;-82
2024/03/04 01:18:15;;;;;;;24.75;6.82;;;9.70;99.90;;;;;;5002290;28;20418;-82
2024/03/04 01:20:41;;;;;;;21.60;5.97;;;9.60;99.90;;;;;;5002602;28;20191;-83
2024/03/04 01:23:08;;;;;;;21.50;6.63;;;9.70;99.90;;;;;;5001791;28;20191;-82
2024/03/04 01:25:34;;;;;;;21.38;6.25;;;9.60;99.90;;;;;;5001392;28;20206;-82
2024/03/04 01:28:00;;;;;;;21.30;6.75;;;9.60;99.90;;;;;;5001260;28;20170;-82
2024/03/04 01:30:26;;;;;;;19.80;4.63;;;9.60;99.90;;;;;;5001688;28;20242;-82
2024/03/04 01:32:53;;;;;;;21.83;6.13;;;9.60;99.90;;;;;;5004152;28;20524;-83
2024/03/04 01:35:18;;;;;;;24.13;6.15;;;9.50;99.90;;;;;;5005516;28;20178;-82
2024/03/04 01:37:45;;;;;;;26.53;7.03;;;9.50;99.90;;;;;;4987596;28;20175;-82
2024/03/04 01:40:13;;;;;;;27.45;6.35;;;9.50;99.90;;;;;;5003295;28;20202;-81
2024/03/04 01:42:42;;;;;;;18.63;5.80;;;9.50;99.90;;;;;;5003442;28;20221;-82
2024/03/04 01:45:25;;;;;;;22.65;6.10;;;9.50;99.90;;;;;;5003774;28;20195;-82
2024/03/04 01:48:00;;;;;;;22.77;6.70;;;9.50;99.90;;;;;;5002445;28;20223;-82
2024/03/04 01:50:39;;;;;;;22.80;6.55;;;9.50;99.90;;;;;;5002801;28;20210;-82
2024/03/04 01:53:06;;;;;;;25.02;5.45;;;9.50;99.90;;;;;;5003540;28;20155;-82
2024/03/04 01:55:54;;;;;;;26.45;6.90;;;9.50;99.90;;;;;;5002771;28;20174;-82
2024/03/04 01:58:20;;;;;;;27.15;6.65;;;9.50;99.90;;;;;;5003793;28;20156;-82
2024/03/04 02:00:48;;;;;;;21.88;6.45;;;9.50;99.90;;;;;;5003385;28;20197;-82
2024/03/04 02:03:16;;;;;;;24.52;7.10;;;9.40;99.90;;;;;;5002293;28;20245;-82
2024/03/04 02:05:45;;;;;;;27.27;6.15;;;9.40;99.90;;;;;;5003667;28;20175;-82
2024/03/04 02:08:12;;;;;;;22.52;7.60;;;9.40;99.90;;;;;;5002444;28;20290;-82
2024/03/04 02:10:39;;;;;;;21.92;7.53;;;9.40;99.90;;;;;;5003024;28;20179;-82
2024/03/04 02:13:05;;;;;;;20.77;6.80;;;9.40;99.90;;;;;;5002734;28;20186;-82
2024/03/04 02:15:37;;;;;;;21.33;6.17;;;9.40;99.90;;;;;;5003414;28;20167;-82
2024/03/04 02:18:05;;;;;;;25.58;7.68;;;9.40;99.90;;;;;;5002841;28;20389;-82
2024/03/04 02:20:43;;;;;;;24.80;7.57;;;9.40;99.90;;;;;;4985569;28;20195;-82
2024/03/04 02:23:11;;;;;;;24.08;7.40;;;9.40;99.90;;;;;;4985645;28;20258;-82
2024/03/04 02:25:37;;;;;;;24.45;8.40;;;9.40;99.90;;;;;;5001779;28;20191;-82
2024/03/04 02:28:03;;;;;;;22.85;7.57;;;9.40;99.90;;;;;;5002241;28;20294;-82
2024/03/04 02:30:33;;;;;;;30.90;8.73;;;9.40;99.90;;;;;;4985294;28;20195;-81
2024/03/04 02:33:03;;;;;;;27.48;8.60;;;9.40;99.90;;;;;;5002829;28;20650;-82
2024/03/04 02:35:33;;;;;;;29.98;8.77;;;9.40;99.90;;;;;;5002327;28;20148;-81
2024/03/04 02:38:00;;;;;;;26.90;9.10;;;9.40;99.90;;;;;;5003051;28;20171;-82
2024/03/04 02:40:26;;;;;;;25.83;8.52;;;9.40;99.90;;;;;;5003095;28;20261;-82
2024/03/04 02:42:51;;;;;;;26.83;8.77;;;9.40;99.90;;;;;;5002525;28;20202;-82
2024/03/04 02:45:17;;;;;;;28.90;11.43;;;9.40;99.90;;;;;;5001770;28;20170;-82
2024/03/04 02:47:43;;;;;;;26.00;8.10;;;9.50;99.90;;;;;;5001382;28;20171;-82
2024/03/04 02:50:10;;;;;;;26.50;7.70;;;9.50;99.90;;;;;;5002742;28;20252;-82
2024/03/04 02:52:35;;;;;;;29.15;8.65;;;9.50;99.90;;;;;;5003082;28;20166;-82
2024/03/04 02:55:01;;;;;;;28.83;9.30;;;9.50;99.90;;;;;;5004386;28;20168;-82
2024/03/04 02:57:27;;;;;;;25.00;8.67;;;9.50;99.90;;;;;;5004249;28;20254;-82
2024/03/04 02:59:52;;;;;;;28.20;8.87;;;9.50;99.90;;;;;;5003917;28;20190;-83
2024/03/04 03:02:18;;;;;;;29.73;8.60;;;9.40;99.90;;;;;;5003861;28;20953;-82
2024/03/04 03:04:44;;;;;;;23.07;7.53;;;9.50;99.90;;;;;;5003950;28;20343;-82
2024/03/04 03:07:10;;;;;;;21.43;6.20;;;9.50;99.90;;;;;;5004252;28;20159;-82
2024/03/04 03:09:35;;;;;;;21.93;6.43;;;9.50;99.90;;;;;;5003923;28;20170;-82
2024/03/04 03:12:01;;;;;;;19.50;5.30;;;9.50;99.90;;;;;;5003835;28;20183;-82
2024/03/04 03:14:27;;;;;;;22.07;6.40;;;9.50;99.90;;;;;;5004080;28;20167;-82
2024/03/04 03:16:53;;;;;;;21.50;6.47;;;9.50;99.90;;;;;;4986542;28;20611;-82
2024/03/04 03:19:25;;;;;;;18.80;5.70;;;9.50;99.90;;;;;;5002888;28;20425;-82
2024/03/04 03:21:52;;;;;;;20.55;5.38;;;9.40;99.90;;;;;;5003912;28;20437;-82
2024/03/04 03:24:24;;;;;;;22.95;5.72;;;9.50;99.90;;;;;;5003236;28;20206;-82
2024/03/04 03:26:50;;;;;;;17.90;4.88;;;9.40;99.90;;;;;;5003797;28;20182;-82
2024/03/04 03:29:17;;;;;;;22.20;5.87;;;9.40;99.90;;;;;;5003980;28;20159;-82
2024/03/04 03:31:42;;;;;;;20.10;4.90;;;9.40;99.90;;;;;;4985955;28;20783;-82
2024/03/04 03:34:08;;;;;;;19.50;5.80;;;9.40;99.90;;;;;;4986483;28;20181;-82
2024/03/04 03:36:39;;;;;;;16.97;4.90;;;9.30;99.90;;;;;;5003626;28;20410;-82
2024/03/04 03:39:07;;;;;;;20.20;5.45;;;9.30;99.90;;;;;;5004592;28;20525;-82
2024/03/04 03:41:34;;;;;;;21.42;6.65;;;9.40;99.90;;;;;;4986226;28;20191;-82
2024/03/04 03:44:00;;;;;;;25.95;6.65;;;9.40;99.90;;;;;;5002746;28;20179;-82
2024/03/04 03:46:25;;;;;;;22.03;6.30;;;9.40;99.90;;;;;;4985119;28;20175;-82
2024/03/04 03:48:51;;;;;;;18.87;6.03;;;9.40;99.90;;;;;;5002863;28;20167;-82
2024/03/04 03:51:17;;;;;;;20.93;6.33;;;9.40;99.90;;;;;;5002809;28;20215;-83
2024/03/04 03:53:42;;;;;;;21.10;6.00;;;9.30;99.90;;;;;;5002508;28;20198;-82
2024/03/04 03:56:08;;;;;;;20.50;5.57;;;9.30;99.90;;;;;;5000741;28;20178;-82
2024/03/04 03:58:34;;;;;;;19.07;4.97;;;9.20;99.90;;;;;;5001781;28;20167;-82
2024/03/04 04:01:00;;;;;;;18.60;5.27;;;9.30;99.90;;;;;;5002313;28;20426;-82
2024/03/04 04:03:25;;;;;;;28.00;6.40;;;9.30;99.90;;;;;;5001754;28;20241;-82
2024/03/04 04:05:51;;;;;;;20.37;6.30;;;9.30;99.90;;;;;;5002298;28;20163;-82
2024/03/04 04:08:17;;;;;;;23.60;5.93;;;9.40;99.90;;;;;;4998706;28;20424;-82
2024/03/04 04:10:42;;;;;;;19.60;5.47;;;9.30;99.90;;;;;;4999911;28;20233;-81
2024/03/04 04:13:08;;;;;;;22.43;5.70;;;9.30;99.90;;;;;;5000271;28;20167;-82
2024/03/04 04:15:34;;;;;;;21.27;6.50;;;9.30;99.90;;;;;;4999922;28;20190;-82
2024/03/04 04:17:59;;;;;;;24.50;8.17;;;9.30;99.90;;;;;;4999902;28;20167;-82
2024/03/04 04:20:27;;;;;;;24.83;8.40;;;9.20;99.90;;;;;;4999912;28;20198;-82
2024/03/04 04:22:52;;;;;;;22.90;7.28;;;9.20;99.90;;;;;;4999673;28;20217;-82
2024/03/04 04:25:18;;;;;;;20.40;7.00;;;9.20;99.90;;;;;;4999986;28;20652;-82
2024/03/04 04:27:45;;;;;;;24.00;8.07;;;9.20;99.90;;;;;;4982387;28;20545;-82
2024/03/04 04:30:13;;;;;;;23.40;6.93;;;9.20;99.90;;;;;;4999687;28;20180;-83
2024/03/04 04:32:39;;;;;;;29.48;8.35;;;9.20;99.90;;;;;;4999839;28;20221;-82
2024/03/04 04:35:05;;;;;;;22.20;6.77;;;9.10;99.90;;;;;;4999189;28;20171;-82
2024/03/04 04:37:31;;;;;;;24.77;7.10;;;9.20;99.90;;;;;;4982098;28;20536;-82
2024/03/04 04:39:57;;;;;;;22.40;7.87;;;9.10;99.90;;;;;;5000036;28;20167;-82
2024/03/04 04:42:23;;;;;;;27.00;8.13;;;9.10;99.90;;;;;;5000160;28;20418;-82
2024/03/04 04:44:49;;;;;;;26.40;8.43;;;9.10;99.90;;;;;;4999554;28;20186;-82
2024/03/04 04:47:16;;;;;;;24.63;8.00;;;9.10;99.90;;;;;;4999628;28;20163;-82
2024/03/04 04:49:42;;;;;;;23.20;8.68;;;9.10;99.90;;;;;;4999340;28;20163;-82
2024/03/04 04:52:07;;;;;;;28.25;9.00;;;9.10;99.90;;;;;;5000024;28;20170;-82
2024/03/04 04:54:33;;;;;;;26.33;8.67;;;9.10;99.90;;;;;;4999267;28;20541;-82
2024/03/04 04:56:59;;;;;;;26.17;8.47;;;9.00;99.90;;;;;;5000190;28;20171;-82
2024/03/04 04:59:25;;;;;;;24.58;8.02;;;9.10;99.90;;;;;;5000054;28;20629;-81
2024/03/04 05:01:50;;;;;;;24.60;7.30;;;9.10;99.90;;;;;;4998497;28;20195;-82
2024/03/04 05:04:18;;;;;;;24.60;7.10;;;9.00;99.90;;;;;;4998634;28;20277;-82
2024/03/04 05:06:44;;;;;;;22.25;7.10;;;9.00;99.90;;;;;;5000201;28;20167;-82
2024/03/04 05:09:10;;;;;;;24.13;7.45;;;9.00;99.90;;;;;;4999660;28;20679;-81
2024/03/04 05:11:36;;;;;;;24.40;7.10;;;9.00;99.90;;;;;;4982024;28;20194;-82
2024/03/04 05:14:02;;;;;;;20.73;6.15;;;9.00;99.90;;;;;;5000083;28;20583;-82
2024/03/04 05:16:29;;;;;;;22.47;6.87;;;9.00;99.90;;;;;;4999796;28;20212;-82
2024/03/04 05:18:56;;;;;;;22.13;7.15;;;9.10;99.90;;;;;;4999635;28;20167;-82
2024/03/04 05:21:22;;;;;;;23.02;7.60;;;9.00;99.90;;;;;;4999550;28;20187;-82
2024/03/04 05:23:48;;;;;;;24.10;7.13;;;9.00;99.90;;;;;;4999534;28;20194;-82
2024/03/04 05:26:13;;;;;;;21.77;6.70;;;9.10;99.90;;;;;;5000595;28;20617;-82
2024/03/04 05:28:42;;;;;;;21.00;6.40;;;9.00;99.90;;;;;;5000397;28;20171;-82
2024/03/04 05:31:07;;;;;;;20.80;6.10;;;9.00;99.90;;;;;;5000284;28;20665;-82
2024/03/04 05:33:36;;;;;;;19.60;6.57;;;9.00;99.90;;;;;;5000023;28;20171;-82
2024/03/04 05:36:04;;;;;;;24.25;8.57;;;9.10;99.90;;;;;;4981693;28;20171;-82
2024/03/04 05:38:31;;;;;;;23.08;7.57;;;9.10;99.90;;;;;;5000312;28;20209;-82
2024/03/04 05:40:57;;;;;;;24.65;7.65;;;9.10;99.90;;;;;;4982062;28;20672;-82
2024/03/04 05:43:23;;;;;;;20.70;6.80;;;9.10;99.90;;;;;;4999938;28;20250;-82
2024/03/04 05:45:48;;;;;;;22.87;7.70;;;9.10;99.90;;;;;;5000722;28;20171;-82
2024/03/04 05:48:14;;;;;;;24.77;6.10;;;9.10;99.90;;;;;;5000547;28;20406;-82
2024/03/04 05:50:40;;;;;;;23.03;7.87;;;9.10;99.90;;;;;;5000268;28;20183;-82
2024/03/04 05:53:06;;;;;;;21.77;6.87;;;9.00;99.90;;;;;;5000336;28;20418;-82
2024/03/04 05:55:31;;;;;;;27.03;8.40;;;9.00;99.90;;;;;;4983182;28;20171;-83
2024/03/04 05:57:57;;;;;;;21.40;6.40;;;8.90;99.90;;;;;;5001133;28;20184;-82
2024/03/04 06:00:23;;;;;;;24.10;6.47;;;8.90;99.90;;;;;;5001473;28;20187;-82
2024/03/04 06:02:48;;;;;;;21.30;6.70;;;8.90;99.90;;;;;;4998892;28;20633;-82
2024/03/04 06:05:14;;;;;;;24.07;8.13;;;8.90;99.90;;;;;;4999981;28;20489;-82
2024/03/04 06:07:41;;;;;;;22.73;7.00;;;9.00;99.90;;;;;;4999956;28;20250;-82
2024/03/04 06:10:07;;;;;;;24.05;7.85;;;9.00;99.90;;;;;;5000448;28;20218;-82
2024/03/04 06:12:34;;;;;;;25.95;9.65;;;8.90;99.90;;;;;;5000292;28;20199;-82
2024/03/04 06:15:00;;;;;;;30.40;7.68;;;8.90;99.90;;;;;;4999826;28;20187;-82
2024/03/04 06:17:28;;;;;;;25.95;7.30;;;9.00;99.90;;;;;;5000043;28;20641;-83
2024/03/04 06:19:54;;;;;;;19.35;6.63;;;9.00;99.90;;;;;;5003132;28;20199;-82
2024/03/04 06:22:20;;;;;;;20.67;7.30;;;9.00;99.90;;;;;;4986864;28;20179;-83
2024/03/04 06:24:46;;;;;;;26.20;8.13;;;9.00;99.90;;;;;;5003163;28;20512;-82
2024/03/04 06:27:11;;;;;;;21.20;7.33;;;9.10;99.90;;;;;;4986241;28;20580;-82
2024/03/04 06:29:37;;;;;;;24.97;7.57;;;9.10;99.90;;;;;;5002931;28;20163;-82
2024/03/04 06:32:03;;;;;;;21.60;6.40;;;9.10;99.90;;;;;;5000754;28;20234;-82
2024/03/04 06:34:30;;;;;;;24.55;7.55;;;9.00;99.90;;;;;;5001154;28;20670;-82
2024/03/04 06:36:59;;;;;;;20.48;6.80;;;9.00;99.90;;;;;;5000639;28;20167;-82
2024/03/04 06:39:25;;;;;;;21.33;6.95;;;9.00;99.90;;;;;;4983079;28;20171;-82
2024/03/04 06:41:54;;;;;;;35.47;7.37;;;9.10;99.90;;;;;;5000582;28;20202;-81
2024/03/04 06:44:20;;;;;;;26.00;6.88;;;9.00;99.90;;;;;;4998942;28;20500;-81
2024/03/04 06:46:46;;;;;;;21.10;7.80;;;8.90;99.90;;;;;;4983147;28;20159;-82
2024/03/04 06:49:12;;;;;;;21.00;6.28;;;9.00;99.90;;;;;;5000159;28;20160;-83
2024/03/04 06:51:38;;;;;;;23.65;6.00;;;8.90;99.90;;;;;;4982473;28;20557;-82
2024/03/04 06:54:10;;;;;;;25.07;7.73;;;8.90;99.90;;;;;;5000163;28;20254;-82
2024/03/04 06:56:36;;;;;;;23.77;7.82;;;9.00;99.90;;;;;;4982276;28;20178;-81
2024/03/04 06:59:02;;;;;;;21.20;7.00;;;9.00;99.90;;;;;;4981823;28;20540;-81
2024/03/04 07:01:29;;;;;;;22.20;8.20;;;9.10;99.90;;;;;;5000136;28;20463;-82
2024/03/04 07:03:55;;;;;;;22.17;7.38;;;9.10;99.90;;;;;;4999594;28;20214;-82
2024/03/04 07:06:21;;;;;;;19.90;6.63;;;9.10;99.90;;;;;;4998694;28;20163;-82
2024/03/04 07:08:46;;;;;;;21.63;5.55;;;9.10;99.90;;;;;;5000499;28;20439;-82
2024/03/04 07:11:13;;;;;;;21.63;8.50;;;9.10;99.90;;;;;;4982352;28;20242;-82
2024/03/04 07:13:43;;;;;;;21.27;5.53;;;9.10;99.90;;;;;;4999809;28;20203;-81
2024/03/04 07:16:11;;;;;;;18.65;5.07;;;9.10;99.90;;;;;;4999664;28;20226;-81
2024/03/04 07:18:37;;;;;;;24.02;6.72;;;9.10;99.90;;;;;;4998258;28;20179;-81
2024/03/04 07:21:03;;;;;;;19.43;5.53;;;9.10;99.90;;;;;;4999204;28;20230;-82
2024/03/04 07:23:28;;;;;;;20.30;6.03;;;9.10;99.90;;;;;;4998808;28;20561;-80
2024/03/04 07:25:54;;;;;;;22.63;5.60;;;9.10;99.90;;;;;;4998572;28;20422;-81
2024/03/04 07:28:20;;;;;;;22.37;6.03;;;9.10;99.90;;;;;;4999022;28;20167;-82
2024/03/04 07:30:46;;;;;;;18.87;5.77;;;9.20;99.90;;;;;;4998285;28;20274;-82
2024/03/04 07:33:13;;;;;;;20.73;6.60;;;9.20;99.90;;;;;;4981426;28;20944;-81
2024/03/04 07:35:39;;;;;;;19.77;5.45;;;9.20;99.90;;;;;;4997700;28;20182;-81
2024/03/04 07:38:05;;;;;;;21.57;6.30;;;9.10;99.90;;;;;;4998994;28;20159;-82
2024/03/04 07:40:31;;;;;;;20.60;6.00;;;9.10;99.90;;;;;;4981717;28;20453;-82
2024/03/04 07:42:57;;;;;;;31.38;7.18;;;9.20;99.90;;;;;;4981568;28;20581;-82
2024/03/04 07:45:23;;;;;;;20.33;6.30;;;9.20;99.90;;;;;;4981669;28;20202;-82
2024/03/04 07:47:48;;;;;;;24.13;6.30;;;9.20;99.90;;;;;;4981800;28;20225;-81
2024/03/04 07:50:14;;;;;;;19.70;5.60;;;9.20;99.90;;;;;;4999084;28;20418;-81
2024/03/04 07:52:40;;;;;;;20.70;6.50;;;9.20;99.90;;;;;;4982110;28;20214;-82
2024/03/04 07:55:08;;;;;;;24.50;6.90;;;9.30;99.90;;;;;;5000520;28;20540;-81
2024/03/04 07:57:33;;;;;;;26.10;7.70;;;9.30;99.90;;;;;;4999434;28;20652;-82
2024/03/04 07:59:59;;;;;;;22.90;6.53;;;9.30;99.90;;;;;;4982159;28;20183;-82
2024/03/04 08:02:25;;;;;;;21.30;5.97;;;9.30;99.90;;;;;;4998897;28;20186;-82
2024/03/04 08:04:50;;;;;;;24.93;7.57;;;9.30;99.90;;;;;;4998914;28;20213;-82
2024/03/04 08:07:16;;;;;;;21.73;6.63;;;9.40;99.90;;;;;;4998758;28;20189;-81
2024/03/04 08:09:42;;;;;;;29.10;7.53;;;9.40;99.90;;;;;;4999076;28;20182;-82
2024/03/04 08:12:08;;;;;;;20.37;6.20;;;9.30;99.90;;;;;;4998976;28;20752;-82
2024/03/04 08:14:34;;;;;;;20.50;6.53;;;9.30;99.90;;;;;;4998572;28;20410;-82
2024/03/04 08:17:00;;;;;;;19.27;6.23;;;9.30;99.90;;;;;;4981573;28;20266;-82
2024/03/04 08:19:25;;;;;;;18.53;5.77;;;9.30;99.90;;;;;;4998877;28;20435;-82
2024/03/04 08:21:51;;;;;;;22.73;5.60;;;9.30;99.90;;;;;;4981576;28;20195;-82
2024/03/04 08:24:17;;;;;;;20.90;6.17;;;9.30;99.90;;;;;;4998516;28;20507;-82
2024/03/04 08:26:42;;;;;;;18.30;5.33;;;9.30;99.90;;;;;;4998534;28;20518;-82
2024/03/04 08:29:08;;;;;;;19.43;5.20;;;9.20;99.90;;;;;;4998292;28;20520;-82
2024/03/04 08:31:36;;;;;;;22.47;5.63;;;9.20;99.90;;;;;;4997430;28;20191;-82
2024/03/04 08:34:05;;;;;;;19.83;5.25;;;9.30;99.90;;;;;;4998186;28;20163;-82
2024/03/04 08:36:31;;;;;;;20.05;5.07;;;9.30;99.90;;;;;;4997326;28;20178;-82
2024/03/04 08:38:57;;;;;;;17.00;4.65;;;9.30;99.90;;;;;;4997803;28;20194;-82
2024/03/04 08:41:25;;;;;;;20.37;5.67;;;9.30;99.90;;;;;;4997832;28;20192;-82
2024/03/04 08:43:51;;;;;;;17.77;4.57;;;9.30;99.90;;;;;;4997855;28;20653;-82
2024/03/04 08:46:18;;;;;;;16.20;4.17;;;9.40;99.90;;;;;;4998245;28;20213;-82
2024/03/04 08:48:43;;;;;;;17.10;4.93;;;9.40;99.90;;;;;;4998165;28;20402;-82
2024/03/04 08:51:09;;;;;;;17.53;4.53;;;9.40;99.90;;;;;;4997206;28;20187;-82
2024/03/04 08:53:35;;;;;;;18.93;4.60;;;9.50;99.90;;;;;;4980911;28;20175;-82
2024/03/04 08:56:01;;;;;;;16.87;5.20;;;9.50;99.90;;;;;;4998372;28;20541;-82
2024/03/04 08:58:26;;;;;;;16.55;4.68;;;9.60;99.90;;;;;;4998552;28;20159;-82
2024/03/04 09:00:52;;;;;;;17.40;4.77;;;9.50;99.90;;;;;;4997896;28;20189;-82
2024/03/04 09:03:18;;;;;;;17.40;3.80;;;9.50;99.90;;;;;;4997301;28;20262;-82
2024/03/04 09:05:44;;;;;;;18.70;4.07;;;9.40;99.90;;;;;;4998534;28;20168;-82
2024/03/04 09:08:13;;;;;;;19.80;4.70;;;9.40;99.90;;;;;;4996093;28;20540;-81
2024/03/04 09:10:40;;;;;;;17.75;4.43;;;9.40;99.90;;;;;;4979413;28;20183;-82
2024/03/04 09:13:05;;;;;;;19.02;3.63;;;9.40;99.90;;;;;;4995913;28;20258;-82
2024/03/04 09:15:31;;;;;;;20.80;5.37;;;9.50;99.90;;;;;;4997978;28;20222;-82
2024/03/04 09:17:57;;;;;;;18.57;5.37;;;9.50;99.90;;;;;;4997345;28;20170;-81
2024/03/04 09:20:23;;;;;;;20.40;5.53;;;9.50;99.90;;;;;;4997516;28;20186;-82
2024/03/04 09:22:48;;;;;;;19.40;5.27;;;9.40;99.90;;;;;;4997290;28;20163;-82
2024/03/04 09:25:14;;;;;;;16.90;4.70;;;9.40;99.90;;;;;;4997710;28;20294;-82
2024/03/04 09:27:43;;;;;;;23.43;5.43;;;9.20;99.90;;;;;;4997216;28;20171;-82
2024/03/04 09:30:09;;;;;;;16.48;3.78;;;9.40;99.90;;;;;;4979911;28;20195;-81
2024/03/04 09:32:35;;;;;;;16.30;3.20;;;9.50;99.90;;;;;;4979949;28;20310;-82
2024/03/04 09:35:03;;;;;;;16.20;3.63;;;9.50;99.90;;;;;;4997208;28;20222;-82
2024/03/04 09:37:28;;;;;;;16.17;2.90;;;9.50;99.90;;;;;;4996878;28;20174;-82
2024/03/04 09:39:55;;;;;;;15.87;3.47;;;9.70;99.90;;;;;;4996974;28;20175;-82
2024/03/04 09:42:22;;;;;;;14.93;3.33;;;9.70;99.90;;;;;;4978825;28;20258;-82
2024/03/04 09:44:51;;;;;;;14.13;2.28;;;9.90;99.90;;;;;;4995556;28;20195;-82
2024/03/04 09:47:19;;;;;;;16.02;3.33;;;9.90;99.90;;;;;;4997096;28;20163;-82
2024/03/04 09:49:46;;;;;;;17.25;3.65;;;9.80;99.90;;;;;;4997412;28;20255;-82
2024/03/04 09:52:13;;;;;;;16.98;3.92;;;9.80;99.90;;;;;;4995900;28;20168;-81
2024/03/04 09:54:43;;;;;;;16.15;3.05;;;9.80;99.90;;;;;;5000795;28;20178;-82
2024/03/04 09:57:09;;;;;;;20.85;5.45;;;9.90;99.90;;;;;;5000941;28;20159;-82
2024/03/04 09:59:35;;;;;;;21.40;6.60;;;9.80;99.90;;;;;;4983237;28;20175;-82
2024/03/04 10:02:05;;;;;;;20.50;4.83;;;9.90;99.90;;;;;;5000470;28;20266;-82
2024/03/04 10:04:31;;;;;;;15.35;3.72;;;9.90;99.90;;;;;;4983427;28;20453;-82
2024/03/04 10:06:56;;;;;;;17.80;5.07;;;9.90;99.90;;;;;;5000988;28;20159;-83
2024/03/04 10:09:22;;;;;;;17.87;4.57;;;9.80;99.90;;;;;;5000503;28;20405;-81
2024/03/04 10:11:49;;;;;;;21.17;5.93;;;9.80;99.90;;;;;;5000936;28;20218;-82
2024/03/04 10:14:15;;;;;;;16.17;4.07;;;9.90;99.90;;;;;;5000426;28;20621;-81
2024/03/04 10:16:43;;;;;;;14.87;4.07;;;9.90;99.90;;;;;;5000780;28;20168;-81
2024/03/04 10:19:09;;;;;;;17.67;4.43;;;9.90;99.90;;;;;;4984113;28;20434;-81
2024/03/04 10:21:36;;;;;;;14.03;2.90;;;9.80;99.90;;;;;;5002341;28;20588;-82
2024/03/04 10:24:09;;;;;;;16.65;4.57;;;9.80;99.90;;;;;;4983377;28;20203;-82
2024/03/04 10:26:47;;;;;;;15.05;3.40;;;9.80;99.90;;;;;;5001329;28;20155;-82
2024/03/04 10:29:15;;;;;;;19.00;5.28;;;9.80;99.90;;;;;;5001131;28;20162;-82
2024/03/04 10:31:54;;;;;;;16.10;3.80;;;9.70;99.90;;;;;;5001207;28;20175;-82
2024/03/04 10:34:20;;;;;;;15.65;3.90;;;9.80;99.90;;;;;;4983754;28;20248;-82
2024/03/04 10:36:51;;;;;;;20.52;5.45;;;9.70;99.90;;;;;;5000986;28;20167;-82
2024/03/04 10:39:16;;;;;;;17.20;3.60;;;9.60;99.90;;;;;;4983166;28;20261;-82
2024/03/04 10:41:46;;;;;;;17.80;5.23;;;9.60;99.90;;;;;;5000820;28;20556;-82
2024/03/04 10:44:25;;;;;;;18.38;4.55;;;9.60;99.90;;;;;;5000773;28;20740;-82
2024/03/04 10:46:55;;;;;;;16.65;4.55;;;9.60;99.90;;;;;;5001047;28;20171;-82
2024/03/04 10:49:22;;;;;;;15.95;3.97;;;9.60;99.90;;;;;;5000940;28;20529;-82
2024/03/04 10:51:48;;;;;;;15.40;3.80;;;9.60;99.90;;;;;;4982878;28;20198;-82
2024/03/04 10:54:14;;;;;;;15.45;3.97;;;9.60;99.90;;;;;;5000419;28;20238;-82
2024/03/04 10:56:51;;;;;;;16.10;3.90;;;9.60;99.90;;;;;;5001347;28;20156;-82
2024/03/04 10:59:23;;;;;;;19.20;3.92;;;9.60;99.90;;;;;;5001261;28;20752;-82
2024/03/04 11:01:50;;;;;;;17.80;4.53;;;9.60;99.90;;;;;;4982093;28;20203;-82
2024/03/04 11:04:16;;;;;;;15.23;3.63;;;9.50;99.90;;;;;;5000170;28;20195;-82
2024/03/04 11:06:43;;;;;;;14.43;3.20;;;9.50;99.90;;;;;;5000600;28;20166;-82
2024/03/04 11:09:11;;;;;;;14.88;3.53;;;9.60;99.90;;;;;;4982980;28;20696;-83
2024/03/04 11:11:42;;;;;;;14.77;3.25;;;9.60;99.90;;;;;;5000745;28;20192;-82
2024/03/04 11:14:27;;;;;;;16.25;4.05;;;9.60;99.90;;;;;;4982659;28;20160;-82
2024/03/04 11:17:00;;;;;;;17.38;3.70;;;9.60;99.90;;;;;;4983165;28;20202;-82
2024/03/04 11:19:44;;;;;;;17.05;4.30;;;9.60;99.90;;;;;;5000587;28;20234;-82
2024/03/04 11:22:12;;;;;;;14.52;3.20;;;9.70;99.90;;;;;;5000549;28;20202;-82
2024/03/04 11:24:42;;;;;;;15.75;3.45;;;9.70;99.90;;;;;;5000522;28;20285;-82
2024/03/04 11:27:09;;;;;;;16.27;4.05;;;9.70;99.90;;;;;;5000007;28;20266;-82
2024/03/04 11:29:36;;;;;;;15.57;3.88;;;9.70;99.90;;;;;;5000007;28;20191;-82
2024/03/04 11:32:05;;;;;;;16.38;4.13;;;9.70;99.90;;;;;;4998984;28;20226;-82
2024/03/04 11:34:55;;;;;;;17.27;4.80;;;9.70;99.90;;;;;;5000155;28;20167;-82
2024/03/04 11:37:28;;;;;;;18.65;3.22;;;9.70;99.90;;;;;;4981485;28;20171;-82
2024/03/04 11:39:54;;;;;;;14.50;2.70;;;9.80;99.90;;;;;;4999922;28;20604;-82
2024/03/04 11:42:36;;;;;;;21.23;4.23;;;9.80;99.90;;;;;;4999308;28;20190;-82
2024/03/04 11:45:06;;;;;;;15.00;3.25;;;9.80;99.90;;;;;;4999444;28;20195;-82
2024/03/04 11:47:32;;;;;;;14.20;3.17;;;9.80;99.90;;;;;;4999334;28;20152;-82
2024/03/04 11:49:58;;;;;;;14.67;2.93;;;9.80;99.90;;;;;;4982039;28;20178;-82
2024/03/04 11:52:25;;;;;;;15.67;4.00;;;9.80;99.90;;;;;;4997852;28;20218;-82
2024/03/04 11:54:53;;;;;;;13.70;2.65;;;9.80;99.20;;;;;;4999513;28;20165;-82
2024/03/04 11:57:20;;;;;;;16.55;2.90;;;9.80;99.30;;;;;;4999318;28;20194;-82
2024/03/04 12:00:13;;;;;;;14.82;3.25;;;9.80;98.20;;;;;;4999166;28;20243;-82
2024/03/04 12:02:42;;;;;;;14.68;3.00;;;9.90;96.90;;;;;;4981526;28;20183;-82
2024/03/04 12:05:11;;;;;;;15.90;2.95;;;9.90;96.90;;;;;;4998890;28;20195;-82
2024/03/04 12:07:37;;;;;;;14.68;2.60;;;9.90;96.10;;;;;;4998653;28;20637;-82
2024/03/04 12:10:05;;;;;;;14.27;2.90;;;9.90;94.40;;;;;;4999014;28;20215;-82
2024/03/04 12:12:31;;;;;;;13.90;2.60;;;9.90;95.00;;;;;;4981454;28;20167;-82
2024/03/04 12:14:57;;;;;;;15.45;3.47;;;9.90;97.90;;;;;;4981536;28;20175;-82
2024/03/04 12:17:22;;;;;;;15.13;2.80;;;10.00;96.80;;;;;;4997735;28;20678;-82
2024/03/04 12:19:56;;;;;;;14.53;3.97;;;10.00;93.20;;;;;;4997512;28;20175;-82
2024/03/04 12:22:28;;;;;;;14.80;2.72;;;10.10;93.80;;;;;;4998422;28;20203;-82
2024/03/04 12:25:05;;;;;;;14.13;2.92;;;10.20;93.80;;;;;;4998531;28;20198;-82
2024/03/04 12:27:32;;;;;;;16.90;3.38;;;10.20;90.80;;;;;;4980835;28;20171;-82
2024/03/04 12:30:18;;;;;;;14.45;2.85;;;10.10;88.30;;;;;;4998487;28;20178;-82
2024/03/04 12:32:48;;;;;;;13.52;2.45;;;10.20;92.80;;;;;;4980646;28;20621;-82
2024/03/04 12:35:31;;;;;;;16.17;3.33;;;10.30;82.40;;;;;;4998533;28;20166;-81
2024/03/04 12:37:58;;;;;;;14.48;2.90;;;10.10;79.40;;;;;;4998004;28;20186;-81
2024/03/04 12:40:25;;;;;;;16.27;3.08;;;10.10;85.20;;;;;;4998883;28;20187;-81
2024/03/04 12:42:53;;;;;;;13.98;2.78;;;10.10;85.60;;;;;;4998829;28;20175;-82
2024/03/04 12:45:18;;;;;;;16.08;3.65;;;10.10;79.00;;;;;;4999513;28;20187;-82
2024/03/04 12:47:47;;;;;;;13.23;2.40;;;10.10;84.30;;;;;;4999104;28;20306;-82